Time;durP1;ratioP1;P1;durP2;ratioP2;P2;SDS_P1;SDS_P2;PMS_P1;PMS_P2;Temp;Humidity;BMP_temperature;BMP_pressure;BME280_temperature;BME280_humidity;BME280_pressure;Samples;Min_cycle;Max_cycle;Signal;HPM_P1;HPM_P2
2022/01/31 00:00:06;;;;;;;5.95;2.70;;;6.60;99.90;;;;;;5030318;28;20260;-50
2022/01/31 00:02:40;;;;;;;2.88;1.92;;;6.60;99.90;;;;;;5029056;28;20248;-52
2022/01/31 00:05:09;;;;;;;4.03;2.53;;;6.50;99.90;;;;;;5048675;28;20252;-51
2022/01/31 00:07:38;;;;;;;2.72;2.00;;;6.50;99.90;;;;;;5050442;28;20287;-51
2022/01/31 00:10:11;;;;;;;4.43;2.60;;;6.50;99.90;;;;;;5050734;28;20213;-50
2022/01/31 00:12:50;;;;;;;3.38;2.10;;;6.60;99.90;;;;;;5040360;28;20197;-52
2022/01/31 00:15:19;;;;;;;7.45;2.40;;;6.50;99.90;;;;;;5030096;28;20193;-50
2022/01/31 00:17:47;;;;;;;3.85;2.58;;;6.50;99.90;;;;;;5024788;28;20344;-51
2022/01/31 00:20:15;;;;;;;4.45;2.28;;;6.50;99.90;;;;;;5021813;28;20305;-51
2022/01/31 00:22:43;;;;;;;2.28;2.10;;;6.50;99.90;;;;;;5030110;28;20218;-51
2022/01/31 00:25:13;;;;;;;2.80;1.92;;;6.50;99.90;;;;;;5028711;28;20665;-51
2022/01/31 00:27:41;;;;;;;3.03;2.00;;;6.50;99.90;;;;;;5029590;28;20216;-51
2022/01/31 00:30:11;;;;;;;6.78;3.28;;;6.50;99.90;;;;;;5030152;28;20216;-51
2022/01/31 00:32:39;;;;;;;4.45;2.83;;;6.50;99.90;;;;;;5023830;28;20236;-50
2022/01/31 00:35:09;;;;;;;5.70;2.35;;;6.50;99.90;;;;;;5025773;28;20215;-50
2022/01/31 00:37:38;;;;;;;4.25;1.83;;;6.50;99.90;;;;;;5029430;28;20243;-50
2022/01/31 00:40:08;;;;;;;2.03;1.83;;;6.50;99.90;;;;;;5030167;28;20580;-51
2022/01/31 00:42:38;;;;;;;5.90;2.53;;;6.50;99.90;;;;;;5027526;28;20186;-50
2022/01/31 00:45:13;;;;;;;3.75;2.45;;;6.50;99.90;;;;;;5029284;28;20196;-50
2022/01/31 00:47:45;;;;;;;4.38;2.45;;;6.50;99.90;;;;;;5025848;28;20260;-51
2022/01/31 00:50:15;;;;;;;5.18;2.42;;;6.50;99.90;;;;;;5020885;28;20233;-52
2022/01/31 00:52:46;;;;;;;4.78;1.90;;;6.50;99.90;;;;;;5028563;28;20308;-50
2022/01/31 00:55:15;;;;;;;4.32;2.78;;;6.50;99.90;;;;;;5028955;28;20681;-52
2022/01/31 00:57:45;;;;;;;4.13;2.10;;;6.50;99.90;;;;;;5024676;28;20236;-50
2022/01/31 01:00:15;;;;;;;7.00;2.42;;;6.50;99.90;;;;;;5028587;28;20221;-51
2022/01/31 01:02:44;;;;;;;4.35;2.40;;;6.50;99.90;;;;;;5023964;28;20243;-51
2022/01/31 01:05:13;;;;;;;2.72;2.10;;;6.50;99.90;;;;;;5037261;28;20284;-51
2022/01/31 01:07:45;;;;;;;2.92;2.63;;;6.50;99.90;;;;;;5030554;28;20257;-51
2022/01/31 01:10:14;;;;;;;5.65;2.83;;;6.50;99.90;;;;;;5030349;28;20248;-51
2022/01/31 01:12:42;;;;;;;9.55;2.97;;;6.50;99.90;;;;;;5022402;28;20220;-52
2022/01/31 01:15:12;;;;;;;3.00;2.22;;;6.50;99.90;;;;;;5031555;28;20280;-51
2022/01/31 01:17:42;;;;;;;4.70;2.40;;;6.50;99.90;;;;;;5026490;28;20309;-50
2022/01/31 01:20:11;;;;;;;3.65;2.20;;;6.50;99.90;;;;;;5031225;28;20288;-50
2022/01/31 01:22:39;;;;;;;5.53;2.70;;;6.50;99.90;;;;;;5031960;28;20216;-50
2022/01/31 01:25:08;;;;;;;5.43;2.17;;;6.50;99.90;;;;;;5030683;28;20196;-51
2022/01/31 01:27:37;;;;;;;3.50;1.90;;;6.50;99.90;;;;;;5028931;28;20643;-51
2022/01/31 01:30:06;;;;;;;4.43;2.58;;;6.50;99.90;;;;;;5029963;28;20212;-51
2022/01/31 01:32:46;;;;;;;3.97;1.90;;;6.50;99.90;;;;;;5041438;28;20245;-51
2022/01/31 01:35:14;;;;;;;5.00;2.08;;;6.50;99.90;;;;;;5029734;28;20304;-50
2022/01/31 01:37:43;;;;;;;4.93;2.65;;;6.50;99.90;;;;;;5030417;28;20225;-51
2022/01/31 01:40:11;;;;;;;4.43;2.22;;;6.50;99.90;;;;;;5028660;28;20214;-50
2022/01/31 01:42:41;;;;;;;3.67;1.80;;;6.40;99.90;;;;;;5029548;28;20220;-50
2022/01/31 01:45:10;;;;;;;5.57;2.65;;;6.50;99.90;;;;;;5025351;28;20656;-51
2022/01/31 01:47:41;;;;;;;3.63;2.20;;;6.50;99.90;;;;;;5023158;28;20193;-52
2022/01/31 01:50:10;;;;;;;5.10;2.45;;;6.50;99.90;;;;;;5024446;28;20291;-50
2022/01/31 01:52:38;;;;;;;3.70;1.67;;;6.50;99.90;;;;;;5025824;28;20216;-50
2022/01/31 01:55:08;;;;;;;3.10;1.75;;;6.50;99.90;;;;;;5025874;28;20193;-50
2022/01/31 01:57:36;;;;;;;3.15;2.17;;;6.50;99.90;;;;;;5019479;28;20280;-50
2022/01/31 02:00:08;;;;;;;3.45;2.00;;;6.50;99.90;;;;;;5026138;28;20444;-50
2022/01/31 02:02:36;;;;;;;5.05;2.35;;;6.50;99.90;;;;;;5023220;28;20521;-51
2022/01/31 02:05:09;;;;;;;4.35;2.25;;;6.50;99.90;;;;;;5016095;28;20657;-50
2022/01/31 02:07:40;;;;;;;6.43;2.90;;;6.50;99.90;;;;;;5042380;28;20572;-50
2022/01/31 02:10:11;;;;;;;6.05;2.00;;;6.40;99.90;;;;;;5026298;28;20550;-51
2022/01/31 02:12:51;;;;;;;3.15;1.92;;;6.50;99.90;;;;;;5019783;28;20703;-51
2022/01/31 02:15:36;;;;;;;5.78;2.45;;;6.40;99.90;;;;;;5026198;28;20193;-51
2022/01/31 02:18:29;;;;;;;5.60;2.20;;;6.50;99.90;;;;;;5022960;28;20232;-51
2022/01/31 02:21:02;;;;;;;3.55;2.03;;;6.50;99.90;;;;;;5039841;28;20198;-51
2022/01/31 02:23:34;;;;;;;4.00;3.15;;;6.40;99.90;;;;;;5025952;28;20213;-50
2022/01/31 02:26:26;;;;;;;7.65;2.30;;;6.40;99.90;;;;;;5025464;28;20185;-51
2022/01/31 02:29:01;;;;;;;3.42;2.35;;;6.40;99.90;;;;;;5025819;28;20889;-52
2022/01/31 02:31:29;;;;;;;7.70;2.70;;;6.40;99.90;;;;;;5026406;28;20190;-50
2022/01/31 02:33:57;;;;;;;5.13;2.92;;;6.40;99.90;;;;;;5018668;28;20340;-50
2022/01/31 02:36:27;;;;;;;2.60;2.20;;;6.40;99.90;;;;;;5024844;28;20185;-51
2022/01/31 02:38:56;;;;;;;2.38;2.13;;;6.40;99.90;;;;;;5026727;28;20759;-51
2022/01/31 02:41:24;;;;;;;3.05;1.83;;;6.40;99.90;;;;;;5015528;28;20229;-51
2022/01/31 02:43:54;;;;;;;4.35;1.80;;;6.40;99.90;;;;;;5025580;28;20722;-50
2022/01/31 02:46:27;;;;;;;4.55;2.63;;;6.40;99.90;;;;;;5034641;28;20201;-51
2022/01/31 02:48:58;;;;;;;4.75;2.38;;;6.40;99.90;;;;;;5018947;28;20229;-51
2022/01/31 02:51:31;;;;;;;6.30;2.22;;;6.40;99.90;;;;;;5023915;28;20190;-51
2022/01/31 02:54:00;;;;;;;4.75;2.08;;;6.40;99.90;;;;;;5040924;28;20283;-53
2022/01/31 02:56:28;;;;;;;3.55;1.70;;;6.40;99.90;;;;;;5013528;28;20194;-50
2022/01/31 02:58:56;;;;;;;2.95;2.10;;;6.40;99.90;;;;;;5022112;28;20310;-51
2022/01/31 03:01:24;;;;;;;4.22;2.40;;;6.40;99.90;;;;;;5029026;28;20203;-51
2022/01/31 03:03:53;;;;;;;3.40;2.40;;;6.40;99.90;;;;;;5019314;28;20313;-52
2022/01/31 03:06:21;;;;;;;6.13;2.17;;;6.40;99.90;;;;;;5030168;28;20193;-51
2022/01/31 03:08:50;;;;;;;4.22;1.80;;;6.40;99.90;;;;;;5031252;28;20664;-51
2022/01/31 03:11:22;;;;;;;4.72;1.75;;;6.40;99.90;;;;;;5023051;28;20197;-51
2022/01/31 03:14:03;;;;;;;4.40;2.08;;;6.40;99.90;;;;;;5028026;28;20236;-52
2022/01/31 03:16:34;;;;;;;3.33;2.38;;;6.40;99.90;;;;;;5028962;28;20247;-52
2022/01/31 03:19:21;;;;;;;4.60;2.13;;;6.40;99.90;;;;;;5021510;28;20646;-51
2022/01/31 03:21:58;;;;;;;4.03;2.00;;;6.40;99.90;;;;;;5029161;28;20201;-52
2022/01/31 03:24:27;;;;;;;2.72;1.92;;;6.40;99.90;;;;;;5027539;28;20592;-51
2022/01/31 03:26:55;;;;;;;7.80;1.80;;;6.40;99.90;;;;;;5028184;28;20259;-51
2022/01/31 03:29:23;;;;;;;3.20;2.10;;;6.40;99.90;;;;;;5028915;28;20275;-52
2022/01/31 03:31:52;;;;;;;4.60;1.92;;;6.40;99.90;;;;;;5028683;28;20667;-51
2022/01/31 03:34:20;;;;;;;2.35;1.88;;;6.40;99.90;;;;;;5022334;28;20763;-51
2022/01/31 03:36:48;;;;;;;3.55;1.98;;;6.40;99.90;;;;;;5029334;28;20186;-50
2022/01/31 03:39:20;;;;;;;3.25;2.08;;;6.40;99.90;;;;;;5027341;28;20327;-51
2022/01/31 03:41:50;;;;;;;2.72;1.50;;;6.40;99.90;;;;;;5029632;28;20197;-51
2022/01/31 03:44:18;;;;;;;2.25;2.05;;;6.40;99.90;;;;;;5043508;28;20256;-51
2022/01/31 03:46:49;;;;;;;2.47;1.73;;;6.30;99.90;;;;;;5012117;28;20267;-50
2022/01/31 03:49:20;;;;;;;2.25;1.42;;;6.30;99.90;;;;;;5022404;28;20224;-51
2022/01/31 03:51:55;;;;;;;2.70;1.83;;;6.40;99.90;;;;;;5029043;28;20212;-51
2022/01/31 03:54:34;;;;;;;3.35;1.60;;;6.40;99.90;;;;;;5027829;28;20307;-51
2022/01/31 03:57:05;;;;;;;6.10;2.28;;;6.40;99.90;;;;;;5023179;28;20198;-50
2022/01/31 03:59:54;;;;;;;4.32;2.13;;;6.40;99.90;;;;;;5027838;28;20227;-51
2022/01/31 04:02:23;;;;;;;2.25;1.30;;;6.40;99.90;;;;;;5026622;28;20625;-50
2022/01/31 04:04:51;;;;;;;1.52;1.42;;;6.30;99.90;;;;;;5014204;28;20308;-51
2022/01/31 04:07:19;;;;;;;3.15;1.75;;;6.40;99.90;;;;;;5012889;28;20201;-51
2022/01/31 04:09:47;;;;;;;3.88;1.90;;;6.40;99.90;;;;;;5028800;28;20231;-51
2022/01/31 04:12:17;;;;;;;2.58;1.77;;;6.40;99.90;;;;;;5028879;28;20189;-52
2022/01/31 04:14:45;;;;;;;3.10;1.40;;;6.30;99.90;;;;;;5021591;28;20244;-51
2022/01/31 04:17:14;;;;;;;1.30;1.20;;;6.40;99.90;;;;;;5019618;28;20189;-51
2022/01/31 04:19:42;;;;;;;2.03;1.35;;;6.40;99.90;;;;;;5023162;28;20596;-51
2022/01/31 04:22:14;;;;;;;2.60;1.90;;;6.30;99.90;;;;;;5029159;28;20304;-51
2022/01/31 04:24:42;;;;;;;3.53;2.08;;;6.30;99.90;;;;;;5015529;28;20263;-50
2022/01/31 04:27:17;;;;;;;2.55;2.35;;;6.30;99.90;;;;;;5020965;28;20201;-51
2022/01/31 04:29:48;;;;;;;3.00;1.85;;;6.30;99.90;;;;;;5028588;28;20223;-52
2022/01/31 04:32:16;;;;;;;3.58;1.48;;;6.40;99.90;;;;;;5028145;28;20224;-50
2022/01/31 04:34:45;;;;;;;1.67;1.58;;;6.30;99.90;;;;;;5028360;28;20221;-51
2022/01/31 04:37:13;;;;;;;5.20;1.98;;;6.30;99.90;;;;;;5029012;28;20269;-51
2022/01/31 04:39:41;;;;;;;2.17;1.48;;;6.30;99.90;;;;;;5028196;28;20217;-51
2022/01/31 04:42:09;;;;;;;2.88;1.80;;;6.30;99.90;;;;;;5028293;28;20199;-51
2022/01/31 04:44:37;;;;;;;1.63;1.50;;;6.30;99.90;;;;;;5027765;28;20227;-51
2022/01/31 04:47:07;;;;;;;4.70;2.00;;;6.30;99.90;;;;;;5029116;28;20197;-51
2022/01/31 04:49:35;;;;;;;2.33;1.50;;;6.30;99.90;;;;;;5021918;28;20271;-51
2022/01/31 04:52:04;;;;;;;2.38;1.60;;;6.30;99.90;;;;;;5028447;28;20210;-51
2022/01/31 04:54:32;;;;;;;2.20;2.00;;;6.30;99.90;;;;;;5028119;28;20221;-51
2022/01/31 04:57:00;;;;;;;3.45;1.70;;;6.30;99.90;;;;;;5028628;28;20669;-51
2022/01/31 04:59:29;;;;;;;3.95;1.70;;;6.30;99.90;;;;;;5014786;28;20454;-51
2022/01/31 05:01:57;;;;;;;2.45;1.60;;;6.30;99.90;;;;;;5028874;28;20755;-51
2022/01/31 05:04:27;;;;;;;3.25;1.70;;;6.30;99.90;;;;;;5015812;28;20221;-51
2022/01/31 05:06:54;;;;;;;2.15;1.60;;;6.30;99.90;;;;;;5028533;28;20353;-52
2022/01/31 05:09:24;;;;;;;2.58;2.28;;;6.30;99.90;;;;;;5027970;28;20595;-51
2022/01/31 05:11:52;;;;;;;5.22;1.38;;;6.30;99.90;;;;;;5027650;28;20201;-50
2022/01/31 05:14:20;;;;;;;2.20;1.65;;;6.30;99.90;;;;;;5027642;28;20294;-51
2022/01/31 05:16:48;;;;;;;1.60;1.50;;;6.30;99.90;;;;;;5028597;28;20285;-51
2022/01/31 05:19:16;;;;;;;3.70;2.10;;;6.30;99.90;;;;;;5026311;28;20244;-50
2022/01/31 05:21:45;;;;;;;5.18;2.10;;;6.30;99.90;;;;;;5028817;28;20208;-51
2022/01/31 05:24:14;;;;;;;2.83;2.00;;;6.30;99.90;;;;;;5027591;28;20209;-51
2022/01/31 05:26:42;;;;;;;3.38;1.90;;;6.30;99.90;;;;;;5027843;28;20203;-51
2022/01/31 05:29:10;;;;;;;2.55;1.75;;;6.30;99.90;;;;;;5026069;28;20224;-51
2022/01/31 05:31:38;;;;;;;2.60;1.77;;;6.30;99.90;;;;;;5027694;28;20459;-51
2022/01/31 05:34:06;;;;;;;2.35;1.63;;;6.30;99.90;;;;;;5021673;28;20215;-51
2022/01/31 05:36:34;;;;;;;2.42;1.80;;;6.30;99.90;;;;;;5028061;28;20197;-51
2022/01/31 05:39:04;;;;;;;5.35;1.98;;;6.30;99.90;;;;;;5027174;28;20232;-51
2022/01/31 05:41:32;;;;;;;6.18;2.30;;;6.30;99.90;;;;;;5016241;28;20325;-51
2022/01/31 05:44:01;;;;;;;2.03;1.85;;;6.30;99.90;;;;;;5023734;28;20317;-51
2022/01/31 05:46:29;;;;;;;2.72;2.03;;;6.30;99.90;;;;;;5027223;28;20216;-51
2022/01/31 05:48:57;;;;;;;2.67;1.95;;;6.30;99.90;;;;;;5013128;28;21020;-51
2022/01/31 05:51:25;;;;;;;2.10;1.70;;;6.30;99.90;;;;;;5028152;28;20581;-52
2022/01/31 05:53:53;;;;;;;4.70;1.98;;;6.30;99.90;;;;;;5027799;28;20213;-52
2022/01/31 05:56:23;;;;;;;2.70;2.38;;;6.30;99.90;;;;;;5027472;28;20201;-51
2022/01/31 05:58:51;;;;;;;2.45;1.90;;;6.30;99.90;;;;;;5017526;28;20228;-51
2022/01/31 06:01:19;;;;;;;3.17;1.95;;;6.30;99.90;;;;;;5028106;28;20196;-51
2022/01/31 06:03:47;;;;;;;3.33;1.95;;;6.30;99.90;;;;;;5014154;28;20229;-51
2022/01/31 06:06:16;;;;;;;2.22;1.77;;;6.30;99.90;;;;;;5026678;28;20185;-52
2022/01/31 06:08:44;;;;;;;3.42;1.88;;;6.30;99.90;;;;;;5027816;28;20308;-51
2022/01/31 06:11:12;;;;;;;2.30;2.10;;;6.30;99.90;;;;;;5021974;28;20198;-51
2022/01/31 06:13:45;;;;;;;2.72;1.90;;;6.30;99.90;;;;;;5024849;28;20275;-50
2022/01/31 06:16:13;;;;;;;2.35;2.00;;;6.30;99.90;;;;;;5028255;28;20193;-52
2022/01/31 06:18:41;;;;;;;1.75;1.65;;;6.30;99.90;;;;;;5015083;28;20230;-50
2022/01/31 06:21:11;;;;;;;3.10;1.85;;;6.30;99.90;;;;;;5025870;28;20216;-51
2022/01/31 06:23:39;;;;;;;2.85;1.55;;;6.30;99.90;;;;;;5027303;28;20244;-51
2022/01/31 06:26:07;;;;;;;2.85;2.00;;;6.30;99.90;;;;;;5019049;28;20280;-50
2022/01/31 06:28:35;;;;;;;2.30;1.67;;;6.30;99.90;;;;;;5019765;28;20231;-51
2022/01/31 06:31:26;;;;;;;3.35;1.55;;;6.30;99.90;;;;;;5027307;28;20204;-51
2022/01/31 06:33:54;;;;;;;3.40;1.90;;;6.30;99.90;;;;;;5013221;28;20277;-51
2022/01/31 06:36:23;;;;;;;5.00;1.35;;;6.30;99.90;;;;;;5030888;28;20255;-52
2022/01/31 06:38:51;;;;;;;4.45;2.28;;;6.30;99.90;;;;;;5031022;28;20224;-51
2022/01/31 06:41:23;;;;;;;3.17;1.65;;;6.30;99.90;;;;;;5030899;28;20193;-50
2022/01/31 06:43:52;;;;;;;2.97;1.73;;;6.30;99.90;;;;;;5019592;28;20225;-50
2022/01/31 06:46:20;;;;;;;2.35;2.00;;;6.30;99.90;;;;;;5031689;28;20200;-51
2022/01/31 06:48:50;;;;;;;3.63;2.05;;;6.30;99.90;;;;;;5017865;28;20712;-51
2022/01/31 06:51:19;;;;;;;5.13;2.10;;;6.30;99.90;;;;;;5031807;28;20541;-50
2022/01/31 06:53:55;;;;;;;2.78;1.80;;;6.30;99.90;;;;;;5030721;28;20307;-51
2022/01/31 06:56:29;;;;;;;3.30;1.90;;;6.30;99.90;;;;;;5030155;28;20208;-51
2022/01/31 06:58:58;;;;;;;4.70;2.83;;;6.30;99.90;;;;;;5025672;28;20224;-51
2022/01/31 07:01:26;;;;;;;3.60;1.52;;;6.30;99.90;;;;;;5031236;28;20197;-51
2022/01/31 07:03:57;;;;;;;3.40;1.80;;;6.30;99.90;;;;;;5021385;28;20680;-51
2022/01/31 07:06:25;;;;;;;3.97;2.03;;;6.30;99.90;;;;;;5031172;28;20196;-51
2022/01/31 07:08:54;;;;;;;2.75;2.10;;;6.30;99.90;;;;;;5030651;28;20704;-50
2022/01/31 07:11:27;;;;;;;4.10;1.90;;;6.30;99.90;;;;;;5024469;28;20654;-52
2022/01/31 07:14:03;;;;;;;2.55;2.03;;;6.30;99.90;;;;;;5026720;28;20296;-52
2022/01/31 07:16:31;;;;;;;1.83;1.65;;;6.30;99.90;;;;;;5030941;28;20197;-51
2022/01/31 07:19:06;;;;;;;4.45;2.17;;;6.30;99.90;;;;;;5029678;28;20712;-52
2022/01/31 07:21:39;;;;;;;3.70;2.08;;;6.30;99.90;;;;;;5031514;28;20196;-51
2022/01/31 07:24:21;;;;;;;2.30;1.90;;;6.30;99.90;;;;;;5028767;28;20696;-51
2022/01/31 07:26:52;;;;;;;3.00;1.92;;;6.30;99.90;;;;;;5027918;28;20206;-51
2022/01/31 07:29:22;;;;;;;4.30;2.00;;;6.30;99.90;;;;;;5029444;28;20225;-50
2022/01/31 07:31:57;;;;;;;4.65;1.95;;;6.30;99.90;;;;;;5030992;28;20416;-50
2022/01/31 07:34:29;;;;;;;2.88;1.95;;;6.30;99.90;;;;;;5023342;28;20293;-51
2022/01/31 07:37:04;;;;;;;2.28;1.67;;;6.30;99.90;;;;;;5031022;28;20191;-51
2022/01/31 07:39:34;;;;;;;3.70;1.60;;;6.30;99.90;;;;;;5029555;28;20256;-51
2022/01/31 07:42:03;;;;;;;4.00;1.58;;;6.30;99.90;;;;;;5029432;28;20691;-50
2022/01/31 07:44:39;;;;;;;3.65;1.70;;;6.20;99.90;;;;;;5028045;28;20600;-51
2022/01/31 07:47:14;;;;;;;1.45;1.35;;;6.30;99.90;;;;;;5028540;28;20266;-51
2022/01/31 07:49:45;;;;;;;3.25;2.40;;;6.20;99.90;;;;;;5025138;28;20650;-51
2022/01/31 07:52:13;;;;;;;4.88;2.00;;;6.30;99.90;;;;;;5030202;28;20193;-51
2022/01/31 07:54:43;;;;;;;3.78;2.05;;;6.30;99.90;;;;;;5029698;28;20279;-51
2022/01/31 07:57:12;;;;;;;4.95;2.50;;;6.30;99.90;;;;;;5029885;28;20197;-51
2022/01/31 08:00:00;;;;;;;2.97;1.95;;;6.30;99.90;;;;;;5030323;28;20227;-52
2022/01/31 08:02:29;;;;;;;3.03;1.55;;;6.20;99.90;;;;;;5027416;28;20718;-50
2022/01/31 08:05:00;;;;;;;3.83;2.80;;;6.30;99.90;;;;;;5026765;28;20214;-52
2022/01/31 08:07:28;;;;;;;2.55;1.75;;;6.20;99.90;;;;;;5021625;28;20193;-51
2022/01/31 08:09:56;;;;;;;2.22;1.55;;;6.30;99.90;;;;;;5030101;28;20213;-50
2022/01/31 08:12:25;;;;;;;3.58;1.98;;;6.20;99.90;;;;;;5029680;28;20598;-51
2022/01/31 08:15:00;;;;;;;4.32;2.13;;;6.20;99.90;;;;;;5029825;28;20576;-51
2022/01/31 08:17:29;;;;;;;4.10;1.75;;;6.20;99.90;;;;;;5027752;28;20217;-51
2022/01/31 08:19:58;;;;;;;5.40;2.08;;;6.20;99.90;;;;;;5026782;28;20222;-51
2022/01/31 08:22:27;;;;;;;3.35;1.95;;;6.20;99.90;;;;;;5027924;28;20212;-50
2022/01/31 08:24:57;;;;;;;4.63;1.83;;;6.20;99.90;;;;;;5030328;28;20213;-51
2022/01/31 08:27:25;;;;;;;2.20;1.70;;;6.20;99.90;;;;;;5030305;28;20189;-51
2022/01/31 08:29:59;;;;;;;6.05;2.22;;;6.20;99.90;;;;;;5049600;28;20308;-51
2022/01/31 08:32:43;;;;;;;5.10;1.77;;;6.20;99.90;;;;;;5046022;28;21860;-52
2022/01/31 08:37:59;;;;;;;3.88;1.80;;;6.20;99.90;;;;;;5028206;28;20248;-51
2022/01/31 08:40:28;;;;;;;4.18;2.20;;;6.20;99.90;;;;;;5030164;28;20304;-51
2022/01/31 08:43:00;;;;;;;4.93;2.05;;;6.20;99.90;;;;;;5028815;28;20275;-51
2022/01/31 08:45:28;;;;;;;3.28;1.90;;;6.20;99.90;;;;;;5028933;28;20216;-51
2022/01/31 08:47:59;;;;;;;2.65;1.95;;;6.20;99.90;;;;;;5026067;28;20696;-51
2022/01/31 08:50:38;;;;;;;5.70;1.73;;;6.20;99.90;;;;;;5022598;28;20213;-50
2022/01/31 08:53:19;;;;;;;2.45;2.05;;;6.20;99.90;;;;;;5028348;28;20332;-51
2022/01/31 08:55:51;;;;;;;2.70;1.63;;;6.20;99.90;;;;;;5029279;28;20186;-51
2022/01/31 08:58:24;;;;;;;3.38;1.75;;;6.20;99.90;;;;;;5016603;28;20223;-50
2022/01/31 09:01:00;;;;;;;4.55;2.03;;;6.20;99.90;;;;;;5025425;28;20603;-51
2022/01/31 09:03:42;;;;;;;3.10;2.20;;;6.20;99.90;;;;;;5027473;28;20220;-51
2022/01/31 09:06:23;;;;;;;3.67;2.70;;;6.20;99.90;;;;;;5028620;28;20680;-51
2022/01/31 09:08:53;;;;;;;2.60;1.80;;;6.20;99.90;;;;;;5027670;28;20259;-50
2022/01/31 09:11:24;;;;;;;2.17;1.60;;;6.20;99.90;;;;;;5028268;28;20233;-51
2022/01/31 09:13:57;;;;;;;2.58;1.63;;;6.20;99.90;;;;;;5029095;28;20704;-52
2022/01/31 09:16:29;;;;;;;2.97;2.08;;;6.20;99.90;;;;;;5029820;28;20277;-51
2022/01/31 09:19:00;;;;;;;3.75;2.15;;;6.20;99.90;;;;;;5027963;28;20282;-50
2022/01/31 09:21:35;;;;;;;3.85;1.90;;;6.20;99.90;;;;;;5022585;28;20250;-52
2022/01/31 09:24:07;;;;;;;3.67;1.48;;;6.20;99.90;;;;;;5029248;28;20300;-51
2022/01/31 09:26:37;;;;;;;4.25;1.80;;;6.20;99.90;;;;;;5026518;28;20216;-52
2022/01/31 09:29:08;;;;;;;4.10;2.00;;;6.20;99.90;;;;;;5025778;28;20252;-51
2022/01/31 09:31:38;;;;;;;2.42;1.67;;;6.20;99.90;;;;;;5029689;28;20247;-51
2022/01/31 09:34:08;;;;;;;6.53;1.70;;;6.20;99.90;;;;;;5026634;28;20610;-51
2022/01/31 09:36:41;;;;;;;2.13;1.73;;;6.20;99.90;;;;;;5029552;28;20203;-51
2022/01/31 09:39:11;;;;;;;4.57;2.30;;;6.20;99.90;;;;;;5027385;28;20227;-51
2022/01/31 09:41:45;;;;;;;5.40;1.70;;;6.20;99.90;;;;;;5027545;28;20201;-52
2022/01/31 09:44:22;;;;;;;2.95;1.90;;;6.20;99.90;;;;;;5025702;28;20229;-51
2022/01/31 09:47:07;;;;;;;3.08;1.10;;;6.20;99.90;;;;;;5029755;28;20221;-51
2022/01/31 09:49:36;;;;;;;5.53;1.90;;;6.20;99.90;;;;;;5012204;28;20281;-51
2022/01/31 09:52:09;;;;;;;5.15;1.92;;;6.20;99.90;;;;;;5012661;28;20270;-52
2022/01/31 09:54:39;;;;;;;3.65;2.20;;;6.20;99.90;;;;;;5027143;28;20271;-50
2022/01/31 09:57:08;;;;;;;2.45;1.88;;;6.20;99.90;;;;;;5027164;28;20228;-51
2022/01/31 09:59:36;;;;;;;5.32;1.98;;;6.20;99.90;;;;;;5028601;28;20229;-50
2022/01/31 10:02:11;;;;;;;2.20;1.77;;;6.20;99.90;;;;;;5029386;28;20196;-51
2022/01/31 10:04:44;;;;;;;2.50;1.85;;;6.20;99.90;;;;;;5021941;28;20239;-51
2022/01/31 10:07:16;;;;;;;3.45;1.95;;;6.20;99.90;;;;;;5029077;28;20309;-50
2022/01/31 10:09:48;;;;;;;2.10;1.90;;;6.20;99.90;;;;;;5030265;28;20726;-51
2022/01/31 10:12:27;;;;;;;7.63;2.20;;;6.20;99.90;;;;;;5029231;28;20197;-51
2022/01/31 10:18:02;;;;;;;3.30;2.20;;;6.20;99.90;;;;;;5033443;28;20569;-52
2022/01/31 10:20:38;;;;;;;4.30;2.25;;;6.20;99.90;;;;;;5053769;28;20622;-51
2022/01/31 10:23:28;;;;;;;9.50;2.38;;;6.20;99.90;;;;;;5053080;28;20776;-51
2022/01/31 10:25:59;;;;;;;4.95;2.05;;;6.20;99.90;;;;;;5053279;28;20219;-51
2022/01/31 10:28:28;;;;;;;5.70;2.10;;;6.20;99.90;;;;;;5039220;28;20227;-50
2022/01/31 10:30:57;;;;;;;7.90;1.98;;;6.20;99.90;;;;;;5049131;28;20216;-51
2022/01/31 10:33:30;;;;;;;3.42;1.90;;;6.20;99.90;;;;;;5042398;28;20692;-51
2022/01/31 10:36:00;;;;;;;4.82;2.20;;;6.20;99.90;;;;;;5048849;28;20193;-51
2022/01/31 10:38:37;;;;;;;3.58;2.00;;;6.20;99.90;;;;;;5036704;28;20220;-50
2022/01/31 10:44:46;;;;;;;3.30;2.00;;;6.20;99.90;;;;;;5039556;28;20223;-50
2022/01/31 10:53:10;;;;;;;4.47;2.20;;;6.20;99.90;;;;;;5051665;28;20646;-51
2022/01/31 10:55:41;;;;;;;4.50;2.63;;;6.20;99.90;;;;;;5034926;28;20189;-51
2022/01/31 10:58:15;;;;;;;6.25;1.98;;;6.10;99.90;;;;;;5045139;28;20397;-51
2022/01/31 11:00:44;;;;;;;4.70;2.28;;;6.20;99.90;;;;;;5053540;28;20196;-50
2022/01/31 11:03:34;;;;;;;2.55;1.67;;;6.10;99.90;;;;;;5049487;28;20220;-51
2022/01/31 11:06:08;;;;;;;2.78;2.10;;;6.10;99.90;;;;;;5040865;28;20216;-50
2022/01/31 11:08:36;;;;;;;8.32;1.98;;;6.20;99.90;;;;;;5051891;28;20221;-50
2022/01/31 11:11:07;;;;;;;4.03;1.92;;;6.10;99.90;;;;;;5054244;28;20275;-51
2022/01/31 11:13:38;;;;;;;9.73;2.75;;;6.10;99.90;;;;;;5043723;28;20217;-51
2022/01/31 11:16:07;;;;;;;6.15;2.72;;;6.20;99.90;;;;;;5050181;28;20272;-50
2022/01/31 11:18:37;;;;;;;4.40;2.10;;;6.10;99.90;;;;;;5040881;28;20235;-51
2022/01/31 11:21:08;;;;;;;4.20;1.75;;;6.10;99.90;;;;;;5041762;28;20196;-50
2022/01/31 11:23:40;;;;;;;3.33;1.77;;;6.10;99.90;;;;;;5053793;28;20224;-50
2022/01/31 11:26:17;;;;;;;6.15;2.40;;;6.20;99.90;;;;;;5053666;28;20695;-50
2022/01/31 11:28:48;;;;;;;4.13;1.92;;;6.10;99.90;;;;;;5050539;28;20311;-52
2022/01/31 11:31:18;;;;;;;5.90;2.22;;;6.10;99.90;;;;;;5053050;28;20268;-51
2022/01/31 11:33:49;;;;;;;4.20;1.98;;;6.10;99.90;;;;;;5040250;28;20670;-51
2022/01/31 11:36:18;;;;;;;5.82;2.08;;;6.10;99.90;;;;;;5041051;28;20193;-50
2022/01/31 11:38:46;;;;;;;9.48;2.80;;;6.10;99.90;;;;;;5053384;28;20452;-50
2022/01/31 11:41:17;;;;;;;3.45;1.90;;;6.10;99.90;;;;;;5041763;28;20217;-51
2022/01/31 11:43:54;;;;;;;7.03;2.50;;;6.10;99.90;;;;;;5041642;28;20251;-51
2022/01/31 11:46:25;;;;;;;4.15;1.98;;;6.10;99.90;;;;;;5050290;28;20220;-52
2022/01/31 11:48:54;;;;;;;4.25;1.95;;;6.10;99.90;;;;;;5035769;28;20225;-51
2022/01/31 11:51:23;;;;;;;6.57;2.00;;;6.10;99.90;;;;;;5048593;28;20205;-51
2022/01/31 11:54:02;;;;;;;5.90;2.10;;;6.10;99.90;;;;;;5049436;28;20223;-51
2022/01/31 11:56:32;;;;;;;5.82;2.72;;;6.10;99.90;;;;;;5040877;28;20247;-50
2022/01/31 11:59:01;;;;;;;2.88;1.77;;;6.10;99.90;;;;;;5048514;28;20212;-50
2022/01/31 12:01:35;;;;;;;11.32;2.63;;;6.10;99.90;;;;;;5034265;28;20195;-51
2022/01/31 12:04:03;;;;;;;4.78;2.08;;;6.10;99.90;;;;;;5045860;28;20244;-50
2022/01/31 12:06:36;;;;;;;5.72;2.00;;;6.10;99.90;;;;;;5048850;28;20223;-51
2022/01/31 12:09:11;;;;;;;7.93;2.70;;;6.10;99.90;;;;;;5048571;28;20233;-50
2022/01/31 12:11:56;;;;;;;5.03;2.20;;;6.10;99.90;;;;;;5048836;28;20184;-51
2022/01/31 12:14:30;;;;;;;4.72;1.98;;;6.10;99.90;;;;;;5012486;28;20520;-51
2022/01/31 12:17:17;;;;;;;8.25;2.47;;;6.10;99.90;;;;;;5040071;28;20386;-50
2022/01/31 12:20:01;;;;;;;4.78;2.00;;;6.10;99.90;;;;;;5044536;28;20855;-51
2022/01/31 12:22:47;;;;;;;5.57;2.55;;;6.10;99.90;;;;;;5048976;28;20201;-50
2022/01/31 12:25:24;;;;;;;4.63;2.42;;;6.10;99.90;;;;;;5048151;28;20678;-51
2022/01/31 12:27:54;;;;;;;8.32;2.58;;;6.10;99.90;;;;;;5041984;28;20780;-52
2022/01/31 12:30:34;;;;;;;5.75;2.70;;;6.10;99.90;;;;;;5048587;28;20281;-51
2022/01/31 12:33:03;;;;;;;6.85;2.50;;;6.10;99.90;;;;;;5044262;28;20219;-51
2022/01/31 12:35:37;;;;;;;7.53;2.00;;;6.10;99.90;;;;;;5050421;28;20291;-51
2022/01/31 12:38:06;;;;;;;5.60;1.98;;;6.10;99.90;;;;;;5048174;28;20240;-51
2022/01/31 12:40:51;;;;;;;8.45;2.40;;;6.10;99.90;;;;;;5047952;28;20207;-51
2022/01/31 12:43:46;;;;;;;9.27;2.70;;;6.10;99.90;;;;;;5037429;28;20220;-51
2022/01/31 12:46:17;;;;;;;6.82;2.38;;;6.10;99.90;;;;;;5048645;28;20227;-51
2022/01/31 12:49:11;;;;;;;4.20;2.55;;;6.10;99.90;;;;;;5047068;28;20282;-51
2022/01/31 12:52:00;;;;;;;8.80;3.05;;;6.10;99.90;;;;;;5047145;28;20202;-51
2022/01/31 12:54:29;;;;;;;5.05;2.55;;;6.10;99.90;;;;;;5047405;28;20711;-51
2022/01/31 12:57:04;;;;;;;7.32;3.10;;;6.10;99.90;;;;;;5030605;28;20192;-50
2022/01/31 12:59:34;;;;;;;7.35;2.47;;;6.10;99.90;;;;;;5046917;28;20227;-50
2022/01/31 13:02:05;;;;;;;6.75;2.58;;;6.10;99.90;;;;;;5048544;28;20273;-50
2022/01/31 13:04:35;;;;;;;4.63;2.67;;;6.10;99.90;;;;;;5045960;28;20309;-51
2022/01/31 13:07:04;;;;;;;10.10;3.80;;;6.10;99.90;;;;;;5048117;28;20626;-51
2022/01/31 13:09:53;;;;;;;6.68;2.53;;;6.10;99.90;;;;;;5047684;28;20227;-51
2022/01/31 13:12:25;;;;;;;6.57;3.97;;;6.10;99.90;;;;;;5034765;28;20204;-51
2022/01/31 13:14:55;;;;;;;10.57;2.85;;;6.10;99.90;;;;;;5047852;28;20264;-51
2022/01/31 13:17:26;;;;;;;9.18;3.28;;;6.10;99.90;;;;;;5047225;28;20196;-51
2022/01/31 13:19:56;;;;;;;7.15;2.53;;;6.10;99.90;;;;;;5046721;28;20220;-52
2022/01/31 13:22:32;;;;;;;5.60;3.20;;;6.10;99.90;;;;;;5048449;28;20720;-51
2022/01/31 13:25:04;;;;;;;6.20;3.80;;;6.10;99.90;;;;;;5034545;28;20705;-51
2022/01/31 13:27:52;;;;;;;7.47;2.30;;;6.10;99.90;;;;;;5043538;28;20223;-51
2022/01/31 13:30:24;;;;;;;8.07;2.83;;;6.10;99.90;;;;;;5048213;28;20583;-51
2022/01/31 13:32:54;;;;;;;8.20;2.50;;;6.10;99.90;;;;;;5041746;28;20229;-51
2022/01/31 13:35:23;;;;;;;5.45;2.50;;;6.10;99.90;;;;;;5045930;28;20529;-51